Terminal Aerodrome Forecast
Issued by NWS

Home | Current Version | Previous Version | Text Only | Print | Product List | Glossary Off
Versions: 1 2 3 4 5 6 7 8 9 10 11 12 13 14 15 16 17 18 19 20 21 22 23 24 25 26 27 28 29 30 31

000
FTUS43 KLOT 210651 AAA
TAFMDW
TAF AMD
KMDW 210651Z 2107/2212 31012G18KT 2SM -RA FEW007 OVC012
     FM210830 32012G18KT 5SM -FZRAPL BR SCT007 OVC012
     FM211000 33012G18KT P6SM BKN015
     FM211300 34012KT P6SM BKN250
     FM211900 02011KT P6SM FEW025 BKN200
     FM220200 04010KT P6SM BKN150=

USA.gov is the U.S. government's official web portal to all federal, state and local government web resources and services.